sensor_id;sensor_type;location;lat;lon;timestamp;P1;P2;P0
61815;PMS5003;57055;-35.296;149.168;2023-01-19T00:02:27;3;3;
61815;PMS5003;57055;-35.296;149.168;2023-01-19T00:04:56;2;2;
61815;PMS5003;57055;-35.296;149.168;2023-01-19T00:07:25;2;2;
61815;PMS5003;57055;-35.296;149.168;2023-01-19T00:09:55;2;2;
61815;PMS5003;57055;-35.296;149.168;2023-01-19T00:12:25;2;2;
61815;PMS5003;57055;-35.296;149.168;2023-01-19T00:14:54;2;2;
61815;PMS5003;57055;-35.296;149.168;2023-01-19T00:17:25;2;2;
61815;PMS5003;57055;-35.296;149.168;2023-01-19T00:19:53;3;3;
61815;PMS5003;57055;-35.296;149.168;2023-01-19T00:22:22;2;1;
61815;PMS5003;57055;-35.296;149.168;2023-01-19T00:24:50;1;1;
61815;PMS5003;57055;-35.296;149.168;2023-01-19T00:27:19;2;2;
61815;PMS5003;57055;-35.296;149.168;2023-01-19T00:29:47;3;3;
61815;PMS5003;57055;-35.296;149.168;2023-01-19T00:32:16;2;1;
61815;PMS5003;57055;-35.296;149.168;2023-01-19T00:34:45;3;3;
61815;PMS5003;57055;-35.296;149.168;2023-01-19T00:37:13;5;3;
61815;PMS5003;57055;-35.296;149.168;2023-01-19T00:39:43;3;3;
61815;PMS5003;57055;-35.296;149.168;2023-01-19T00:42:12;3;3;
61815;PMS5003;57055;-35.296;149.168;2023-01-19T00:44:41;2;2;
61815;PMS5003;57055;-35.296;149.168;2023-01-19T00:47:09;2;2;
61815;PMS5003;57055;-35.296;149.168;2023-01-19T00:49:38;5;3;
61815;PMS5003;57055;-35.296;149.168;2023-01-19T00:52:07;3;3;
61815;PMS5003;57055;-35.296;149.168;2023-01-19T00:54:36;3;3;
61815;PMS5003;57055;-35.296;149.168;2023-01-19T00:57:04;2;2;
61815;PMS5003;57055;-35.296;149.168;2023-01-19T00:59:33;2;2;
61815;PMS5003;57055;-35.296;149.168;2023-01-19T01:02:01;5;4;
61815;PMS5003;57055;-35.296;149.168;2023-01-19T01:04:30;0;0;
61815;PMS5003;57055;-35.296;149.168;2023-01-19T01:07:00;3;3;
61815;PMS5003;57055;-35.296;149.168;2023-01-19T01:09:29;1;1;
61815;PMS5003;57055;-35.296;149.168;2023-01-19T01:11:58;4;4;
61815;PMS5003;57055;-35.296;149.168;2023-01-19T01:14:28;2;2;
61815;PMS5003;57055;-35.296;149.168;2023-01-19T01:16:57;2;2;
61815;PMS5003;57055;-35.296;149.168;2023-01-19T01:19:26;3;2;
61815;PMS5003;57055;-35.296;149.168;2023-01-19T01:21:54;3;3;
61815;PMS5003;57055;-35.296;149.168;2023-01-19T01:24:23;2;2;
61815;PMS5003;57055;-35.296;149.168;2023-01-19T01:26:51;3;3;
61815;PMS5003;57055;-35.296;149.168;2023-01-19T01:29:20;2;2;
61815;PMS5003;57055;-35.296;149.168;2023-01-19T01:31:49;2;1;
61815;PMS5003;57055;-35.296;149.168;2023-01-19T01:34:18;3;3;
61815;PMS5003;57055;-35.296;149.168;2023-01-19T01:36:46;3;3;
61815;PMS5003;57055;-35.296;149.168;2023-01-19T01:39:15;2;2;
61815;PMS5003;57055;-35.296;149.168;2023-01-19T01:41:43;1;1;
61815;PMS5003;57055;-35.296;149.168;2023-01-19T01:44:48;3;2;
61815;PMS5003;57055;-35.296;149.168;2023-01-19T01:47:19;4;2;
61815;PMS5003;57055;-35.296;149.168;2023-01-19T01:49:56;4;4;
61815;PMS5003;57055;-35.296;149.168;2023-01-19T01:52:31;3;2;
61815;PMS5003;57055;-35.296;149.168;2023-01-19T01:55:06;2;2;
61815;PMS5003;57055;-35.296;149.168;2023-01-19T01:57:37;3;3;
61815;PMS5003;57055;-35.296;149.168;2023-01-19T02:00:09;2;2;
61815;PMS5003;57055;-35.296;149.168;2023-01-19T02:02:39;2;2;
61815;PMS5003;57055;-35.296;149.168;2023-01-19T02:05:09;4;4;
61815;PMS5003;57055;-35.296;149.168;2023-01-19T02:07:44;4;4;
61815;PMS5003;57055;-35.296;149.168;2023-01-19T02:10:18;3;2;
61815;PMS5003;57055;-35.296;149.168;2023-01-19T02:12:46;3;3;
61815;PMS5003;57055;-35.296;149.168;2023-01-19T02:15:16;5;5;
61815;PMS5003;57055;-35.296;149.168;2023-01-19T02:17:46;4;3;
61815;PMS5003;57055;-35.296;149.168;2023-01-19T02:20:15;5;5;
61815;PMS5003;57055;-35.296;149.168;2023-01-19T02:22:48;5;4;
61815;PMS5003;57055;-35.296;149.168;2023-01-19T02:25:18;4;4;
61815;PMS5003;57055;-35.296;149.168;2023-01-19T02:27:47;4;4;
61815;PMS5003;57055;-35.296;149.168;2023-01-19T02:30:16;6;4;
61815;PMS5003;57055;-35.296;149.168;2023-01-19T02:32:46;5;5;
61815;PMS5003;57055;-35.296;149.168;2023-01-19T02:35:15;5;3;
61815;PMS5003;57055;-35.296;149.168;2023-01-19T02:37:45;4;4;
61815;PMS5003;57055;-35.296;149.168;2023-01-19T02:40:16;4;4;
61815;PMS5003;57055;-35.296;149.168;2023-01-19T02:42:47;3;3;
61815;PMS5003;57055;-35.296;149.168;2023-01-19T02:45:20;4;3;
61815;PMS5003;57055;-35.296;149.168;2023-01-19T02:47:50;3;3;
61815;PMS5003;57055;-35.296;149.168;2023-01-19T02:50:51;4;3;
61815;PMS5003;57055;-35.296;149.168;2023-01-19T02:53:30;5;5;
61815;PMS5003;57055;-35.296;149.168;2023-01-19T02:56:17;7;5;
61815;PMS5003;57055;-35.296;149.168;2023-01-19T02:58:57;3;3;
61815;PMS5003;57055;-35.296;149.168;2023-01-19T03:01:35;6;5;
61815;PMS5003;57055;-35.296;149.168;2023-01-19T03:04:16;5;4;
61815;PMS5003;57055;-35.296;149.168;2023-01-19T03:06:57;3;3;
61815;PMS5003;57055;-35.296;149.168;2023-01-19T03:09:36;6;5;
61815;PMS5003;57055;-35.296;149.168;2023-01-19T03:12:17;3;3;
61815;PMS5003;57055;-35.296;149.168;2023-01-19T03:14:54;5;4;
61815;PMS5003;57055;-35.296;149.168;2023-01-19T03:17:27;4;4;
61815;PMS5003;57055;-35.296;149.168;2023-01-19T03:19:59;5;5;
61815;PMS5003;57055;-35.296;149.168;2023-01-19T03:22:29;5;4;
61815;PMS5003;57055;-35.296;149.168;2023-01-19T03:24:58;5;4;
61815;PMS5003;57055;-35.296;149.168;2023-01-19T03:27:29;5;5;
61815;PMS5003;57055;-35.296;149.168;2023-01-19T03:30:06;2;2;
61815;PMS5003;57055;-35.296;149.168;2023-01-19T03:32:39;3;3;
61815;PMS5003;57055;-35.296;149.168;2023-01-19T03:35:11;3;3;
61815;PMS5003;57055;-35.296;149.168;2023-01-19T03:37:44;4;4;
61815;PMS5003;57055;-35.296;149.168;2023-01-19T03:40:18;3;3;
61815;PMS5003;57055;-35.296;149.168;2023-01-19T03:42:48;4;4;
61815;PMS5003;57055;-35.296;149.168;2023-01-19T03:45:18;4;4;
61815;PMS5003;57055;-35.296;149.168;2023-01-19T03:47:49;3;3;
61815;PMS5003;57055;-35.296;149.168;2023-01-19T03:50:22;2;2;
61815;PMS5003;57055;-35.296;149.168;2023-01-19T03:53:00;3;3;
61815;PMS5003;57055;-35.296;149.168;2023-01-19T03:55:36;5;5;
61815;PMS5003;57055;-35.296;149.168;2023-01-19T03:58:06;3;3;
61815;PMS5003;57055;-35.296;149.168;2023-01-19T04:00:35;4;4;
61815;PMS5003;57055;-35.296;149.168;2023-01-19T04:03:05;4;4;
61815;PMS5003;57055;-35.296;149.168;2023-01-19T04:05:40;4;4;
61815;PMS5003;57055;-35.296;149.168;2023-01-19T04:08:10;3;3;
61815;PMS5003;57055;-35.296;149.168;2023-01-19T04:10:39;5;4;
61815;PMS5003;57055;-35.296;149.168;2023-01-19T04:13:08;5;5;
61815;PMS5003;57055;-35.296;149.168;2023-01-19T04:15:37;5;4;
61815;PMS5003;57055;-35.296;149.168;2023-01-19T04:18:07;5;4;
61815;PMS5003;57055;-35.296;149.168;2023-01-19T04:20:36;3;3;
61815;PMS5003;57055;-35.296;149.168;2023-01-19T04:23:05;5;5;
61815;PMS5003;57055;-35.296;149.168;2023-01-19T04:25:33;4;3;
61815;PMS5003;57055;-35.296;149.168;2023-01-19T04:28:02;2;2;
61815;PMS5003;57055;-35.296;149.168;2023-01-19T04:30:31;6;4;
61815;PMS5003;57055;-35.296;149.168;2023-01-19T04:33:00;4;4;
61815;PMS5003;57055;-35.296;149.168;2023-01-19T04:35:29;5;5;
61815;PMS5003;57055;-35.296;149.168;2023-01-19T04:37:58;4;4;
61815;PMS5003;57055;-35.296;149.168;2023-01-19T04:40:26;3;3;
61815;PMS5003;57055;-35.296;149.168;2023-01-19T04:42:55;5;5;
61815;PMS5003;57055;-35.296;149.168;2023-01-19T04:45:23;4;4;
61815;PMS5003;57055;-35.296;149.168;2023-01-19T04:47:52;5;5;
61815;PMS5003;57055;-35.296;149.168;2023-01-19T04:50:21;7;6;
61815;PMS5003;57055;-35.296;149.168;2023-01-19T04:52:50;5;5;
61815;PMS5003;57055;-35.296;149.168;2023-01-19T04:55:18;5;5;
61815;PMS5003;57055;-35.296;149.168;2023-01-19T04:57:47;4;4;
61815;PMS5003;57055;-35.296;149.168;2023-01-19T05:00:16;7;7;
61815;PMS5003;57055;-35.296;149.168;2023-01-19T05:02:46;6;6;
61815;PMS5003;57055;-35.296;149.168;2023-01-19T05:05:16;5;4;
61815;PMS5003;57055;-35.296;149.168;2023-01-19T05:07:45;5;5;
61815;PMS5003;57055;-35.296;149.168;2023-01-19T05:10:13;5;5;
61815;PMS5003;57055;-35.296;149.168;2023-01-19T05:12:43;4;4;
61815;PMS5003;57055;-35.296;149.168;2023-01-19T05:15:12;5;4;
61815;PMS5003;57055;-35.296;149.168;2023-01-19T05:17:41;4;4;
61815;PMS5003;57055;-35.296;149.168;2023-01-19T05:20:11;6;5;
61815;PMS5003;57055;-35.296;149.168;2023-01-19T05:22:40;3;3;
61815;PMS5003;57055;-35.296;149.168;2023-01-19T05:25:09;5;5;
61815;PMS5003;57055;-35.296;149.168;2023-01-19T05:27:37;4;4;
61815;PMS5003;57055;-35.296;149.168;2023-01-19T05:30:06;5;4;
61815;PMS5003;57055;-35.296;149.168;2023-01-19T05:32:36;5;5;
61815;PMS5003;57055;-35.296;149.168;2023-01-19T05:35:06;5;5;
61815;PMS5003;57055;-35.296;149.168;2023-01-19T05:37:36;4;4;
61815;PMS5003;57055;-35.296;149.168;2023-01-19T05:40:05;7;6;
61815;PMS5003;57055;-35.296;149.168;2023-01-19T05:42:35;6;6;
61815;PMS5003;57055;-35.296;149.168;2023-01-19T05:45:04;5;5;
61815;PMS5003;57055;-35.296;149.168;2023-01-19T05:47:34;8;8;
61815;PMS5003;57055;-35.296;149.168;2023-01-19T05:50:03;7;5;
61815;PMS5003;57055;-35.296;149.168;2023-01-19T05:52:33;6;6;
61815;PMS5003;57055;-35.296;149.168;2023-01-19T05:55:01;5;5;
61815;PMS5003;57055;-35.296;149.168;2023-01-19T05:57:31;5;2;
61815;PMS5003;57055;-35.296;149.168;2023-01-19T05:59:59;4;4;
61815;PMS5003;57055;-35.296;149.168;2023-01-19T06:02:28;6;6;
61815;PMS5003;57055;-35.296;149.168;2023-01-19T06:04:56;6;6;
61815;PMS5003;57055;-35.296;149.168;2023-01-19T06:07:25;5;5;
61815;PMS5003;57055;-35.296;149.168;2023-01-19T06:09:53;6;6;
61815;PMS5003;57055;-35.296;149.168;2023-01-19T06:12:22;10;7;
61815;PMS5003;57055;-35.296;149.168;2023-01-19T06:14:50;4;4;
61815;PMS5003;57055;-35.296;149.168;2023-01-19T06:17:20;5;5;
61815;PMS5003;57055;-35.296;149.168;2023-01-19T06:19:49;5;5;
61815;PMS5003;57055;-35.296;149.168;2023-01-19T06:22:18;4;4;
61815;PMS5003;57055;-35.296;149.168;2023-01-19T06:24:46;5;4;
61815;PMS5003;57055;-35.296;149.168;2023-01-19T06:27:15;5;5;
61815;PMS5003;57055;-35.296;149.168;2023-01-19T06:29:44;5;5;
61815;PMS5003;57055;-35.296;149.168;2023-01-19T06:32:13;6;6;
61815;PMS5003;57055;-35.296;149.168;2023-01-19T06:34:42;5;5;
61815;PMS5003;57055;-35.296;149.168;2023-01-19T06:37:10;7;5;
61815;PMS5003;57055;-35.296;149.168;2023-01-19T06:39:40;4;4;
61815;PMS5003;57055;-35.296;149.168;2023-01-19T06:42:08;4;4;
61815;PMS5003;57055;-35.296;149.168;2023-01-19T06:44:38;4;4;
61815;PMS5003;57055;-35.296;149.168;2023-01-19T06:47:06;3;3;
61815;PMS5003;57055;-35.296;149.168;2023-01-19T06:49:35;4;4;
61815;PMS5003;57055;-35.296;149.168;2023-01-19T06:52:03;5;5;
61815;PMS5003;57055;-35.296;149.168;2023-01-19T06:54:32;5;5;
61815;PMS5003;57055;-35.296;149.168;2023-01-19T06:57:00;4;4;
61815;PMS5003;57055;-35.296;149.168;2023-01-19T06:59:29;3;3;
61815;PMS5003;57055;-35.296;149.168;2023-01-19T07:01:57;4;4;
61815;PMS5003;57055;-35.296;149.168;2023-01-19T07:04:26;5;5;
61815;PMS5003;57055;-35.296;149.168;2023-01-19T07:06:55;3;3;
61815;PMS5003;57055;-35.296;149.168;2023-01-19T07:09:23;3;3;
61815;PMS5003;57055;-35.296;149.168;2023-01-19T07:11:52;4;4;
61815;PMS5003;57055;-35.296;149.168;2023-01-19T07:14:21;3;3;
61815;PMS5003;57055;-35.296;149.168;2023-01-19T07:16:50;3;3;
61815;PMS5003;57055;-35.296;149.168;2023-01-19T07:19:18;4;3;
61815;PMS5003;57055;-35.296;149.168;2023-01-19T07:21:47;3;3;
61815;PMS5003;57055;-35.296;149.168;2023-01-19T07:24:16;4;4;
61815;PMS5003;57055;-35.296;149.168;2023-01-19T07:26:45;3;3;
61815;PMS5003;57055;-35.296;149.168;2023-01-19T07:29:13;3;3;
61815;PMS5003;57055;-35.296;149.168;2023-01-19T07:31:42;2;2;
61815;PMS5003;57055;-35.296;149.168;2023-01-19T07:34:10;3;3;
61815;PMS5003;57055;-35.296;149.168;2023-01-19T07:36:39;3;3;
61815;PMS5003;57055;-35.296;149.168;2023-01-19T07:39:08;5;3;
61815;PMS5003;57055;-35.296;149.168;2023-01-19T07:41:36;2;2;
61815;PMS5003;57055;-35.296;149.168;2023-01-19T07:44:05;4;4;
61815;PMS5003;57055;-35.296;149.168;2023-01-19T07:46:33;5;3;
61815;PMS5003;57055;-35.296;149.168;2023-01-19T07:49:02;2;2;
61815;PMS5003;57055;-35.296;149.168;2023-01-19T07:51:30;4;4;
61815;PMS5003;57055;-35.296;149.168;2023-01-19T07:53:59;4;4;
61815;PMS5003;57055;-35.296;149.168;2023-01-19T07:56:28;3;2;
61815;PMS5003;57055;-35.296;149.168;2023-01-19T07:58:57;3;3;
61815;PMS5003;57055;-35.296;149.168;2023-01-19T08:01:25;3;3;
61815;PMS5003;57055;-35.296;149.168;2023-01-19T08:03:54;3;3;
61815;PMS5003;57055;-35.296;149.168;2023-01-19T08:06:23;2;2;
61815;PMS5003;57055;-35.296;149.168;2023-01-19T08:08:55;2;2;
61815;PMS5003;57055;-35.296;149.168;2023-01-19T08:11:24;1;1;
61815;PMS5003;57055;-35.296;149.168;2023-01-19T08:13:53;3;3;
61815;PMS5003;57055;-35.296;149.168;2023-01-19T08:16:22;5;4;
61815;PMS5003;57055;-35.296;149.168;2023-01-19T08:18:51;4;3;
61815;PMS5003;57055;-35.296;149.168;2023-01-19T08:21:20;4;3;
61815;PMS5003;57055;-35.296;149.168;2023-01-19T08:23:52;4;4;
61815;PMS5003;57055;-35.296;149.168;2023-01-19T08:26:24;3;3;
61815;PMS5003;57055;-35.296;149.168;2023-01-19T08:28:55;3;3;
61815;PMS5003;57055;-35.296;149.168;2023-01-19T08:31:25;5;3;
61815;PMS5003;57055;-35.296;149.168;2023-01-19T08:33:54;5;5;
61815;PMS5003;57055;-35.296;149.168;2023-01-19T08:36:23;3;3;
61815;PMS5003;57055;-35.296;149.168;2023-01-19T08:38:52;4;4;
61815;PMS5003;57055;-35.296;149.168;2023-01-19T08:41:21;4;2;
61815;PMS5003;57055;-35.296;149.168;2023-01-19T08:43:49;3;3;
61815;PMS5003;57055;-35.296;149.168;2023-01-19T08:46:18;3;3;
61815;PMS5003;57055;-35.296;149.168;2023-01-19T08:48:46;3;3;
61815;PMS5003;57055;-35.296;149.168;2023-01-19T08:51:16;2;2;
61815;PMS5003;57055;-35.296;149.168;2023-01-19T08:53:45;3;3;
61815;PMS5003;57055;-35.296;149.168;2023-01-19T08:56:15;5;4;
61815;PMS5003;57055;-35.296;149.168;2023-01-19T08:58:43;1;1;
61815;PMS5003;57055;-35.296;149.168;2023-01-19T09:01:13;5;2;
61815;PMS5003;57055;-35.296;149.168;2023-01-19T09:03:41;1;1;
61815;PMS5003;57055;-35.296;149.168;2023-01-19T09:06:12;3;2;
61815;PMS5003;57055;-35.296;149.168;2023-01-19T09:08:41;5;4;
61815;PMS5003;57055;-35.296;149.168;2023-01-19T09:11:11;3;3;
61815;PMS5003;57055;-35.296;149.168;2023-01-19T09:13:41;4;2;
61815;PMS5003;57055;-35.296;149.168;2023-01-19T09:16:11;2;1;
61815;PMS5003;57055;-35.296;149.168;2023-01-19T09:18:41;2;2;
61815;PMS5003;57055;-35.296;149.168;2023-01-19T09:21:09;2;2;
61815;PMS5003;57055;-35.296;149.168;2023-01-19T09:23:38;2;1;
61815;PMS5003;57055;-35.296;149.168;2023-01-19T09:26:06;3;3;
61815;PMS5003;57055;-35.296;149.168;2023-01-19T09:28:37;3;3;
61815;PMS5003;57055;-35.296;149.168;2023-01-19T09:31:06;2;2;
61815;PMS5003;57055;-35.296;149.168;2023-01-19T09:33:35;2;2;
61815;PMS5003;57055;-35.296;149.168;2023-01-19T09:36:03;2;2;
61815;PMS5003;57055;-35.296;149.168;2023-01-19T09:38:33;4;3;
61815;PMS5003;57055;-35.296;149.168;2023-01-19T09:41:01;3;2;
61815;PMS5003;57055;-35.296;149.168;2023-01-19T09:43:40;2;2;
61815;PMS5003;57055;-35.296;149.168;2023-01-19T09:46:12;4;2;
61815;PMS5003;57055;-35.296;149.168;2023-01-19T09:48:46;3;2;
61815;PMS5003;57055;-35.296;149.168;2023-01-19T09:51:18;3;3;
61815;PMS5003;57055;-35.296;149.168;2023-01-19T09:53:52;2;2;
61815;PMS5003;57055;-35.296;149.168;2023-01-19T09:56:27;4;2;
61815;PMS5003;57055;-35.296;149.168;2023-01-19T09:58:57;2;2;
61815;PMS5003;57055;-35.296;149.168;2023-01-19T10:01:33;1;1;
61815;PMS5003;57055;-35.296;149.168;2023-01-19T10:04:42;2;2;
61815;PMS5003;57055;-35.296;149.168;2023-01-19T10:07:23;2;2;
61815;PMS5003;57055;-35.296;149.168;2023-01-19T10:10:11;2;2;
61815;PMS5003;57055;-35.296;149.168;2023-01-19T10:12:50;3;3;
61815;PMS5003;57055;-35.296;149.168;2023-01-19T10:15:28;3;1;
61815;PMS5003;57055;-35.296;149.168;2023-01-19T10:18:11;2;2;
61815;PMS5003;57055;-35.296;149.168;2023-01-19T10:20:45;1;1;
61815;PMS5003;57055;-35.296;149.168;2023-01-19T10:23:20;0;0;
61815;PMS5003;57055;-35.296;149.168;2023-01-19T10:25:57;1;1;
61815;PMS5003;57055;-35.296;149.168;2023-01-19T10:28:29;4;4;
61815;PMS5003;57055;-35.296;149.168;2023-01-19T10:30:59;1;1;
61815;PMS5003;57055;-35.296;149.168;2023-01-19T10:33:29;2;2;
61815;PMS5003;57055;-35.296;149.168;2023-01-19T10:36:02;2;1;
61815;PMS5003;57055;-35.296;149.168;2023-01-19T10:38:32;1;1;
61815;PMS5003;57055;-35.296;149.168;2023-01-19T10:41:04;2;2;
61815;PMS5003;57055;-35.296;149.168;2023-01-19T10:43:38;1;1;
61815;PMS5003;57055;-35.296;149.168;2023-01-19T10:46:16;1;1;
61815;PMS5003;57055;-35.296;149.168;2023-01-19T10:48:50;1;1;
61815;PMS5003;57055;-35.296;149.168;2023-01-19T10:51:20;2;2;
61815;PMS5003;57055;-35.296;149.168;2023-01-19T10:53:57;1;1;
61815;PMS5003;57055;-35.296;149.168;2023-01-19T10:56:30;2;2;
61815;PMS5003;57055;-35.296;149.168;2023-01-19T10:59:02;2;1;
61815;PMS5003;57055;-35.296;149.168;2023-01-19T11:01:33;0;0;
61815;PMS5003;57055;-35.296;149.168;2023-01-19T11:04:18;1;1;
61815;PMS5003;57055;-35.296;149.168;2023-01-19T11:06:53;1;1;
61815;PMS5003;57055;-35.296;149.168;2023-01-19T11:09:41;3;1;
61815;PMS5003;57055;-35.296;149.168;2023-01-19T11:12:18;2;2;
61815;PMS5003;57055;-35.296;149.168;2023-01-19T11:14:49;3;1;
61815;PMS5003;57055;-35.296;149.168;2023-01-19T11:17:19;2;1;
61815;PMS5003;57055;-35.296;149.168;2023-01-19T11:19:52;0;0;
61815;PMS5003;57055;-35.296;149.168;2023-01-19T11:22:25;1;1;
61815;PMS5003;57055;-35.296;149.168;2023-01-19T11:24:57;1;1;
61815;PMS5003;57055;-35.296;149.168;2023-01-19T11:27:28;2;2;
61815;PMS5003;57055;-35.296;149.168;2023-01-19T11:30:03;0;0;
61815;PMS5003;57055;-35.296;149.168;2023-01-19T11:32:34;3;2;
61815;PMS5003;57055;-35.296;149.168;2023-01-19T11:35:27;0;0;
61815;PMS5003;57055;-35.296;149.168;2023-01-19T11:38:05;0;0;
61815;PMS5003;57055;-35.296;149.168;2023-01-19T11:40:44;1;1;
61815;PMS5003;57055;-35.296;149.168;2023-01-19T11:43:18;1;1;
61815;PMS5003;57055;-35.296;149.168;2023-01-19T11:45:48;1;1;
61815;PMS5003;57055;-35.296;149.168;2023-01-19T11:48:20;1;1;
61815;PMS5003;57055;-35.296;149.168;2023-01-19T11:50:55;0;0;
61815;PMS5003;57055;-35.296;149.168;2023-01-19T11:53:31;1;1;
61815;PMS5003;57055;-35.296;149.168;2023-01-19T11:56:02;1;1;
61815;PMS5003;57055;-35.296;149.168;2023-01-19T11:58:36;1;1;
61815;PMS5003;57055;-35.296;149.168;2023-01-19T12:01:09;2;2;
61815;PMS5003;57055;-35.296;149.168;2023-01-19T12:03:45;2;1;
61815;PMS5003;57055;-35.296;149.168;2023-01-19T12:06:19;1;1;
61815;PMS5003;57055;-35.296;149.168;2023-01-19T12:08:52;0;0;
61815;PMS5003;57055;-35.296;149.168;2023-01-19T12:11:26;0;0;
61815;PMS5003;57055;-35.296;149.168;2023-01-19T12:13:58;1;1;
61815;PMS5003;57055;-35.296;149.168;2023-01-19T12:16:28;0;0;
61815;PMS5003;57055;-35.296;149.168;2023-01-19T12:19:00;0;0;
61815;PMS5003;57055;-35.296;149.168;2023-01-19T12:21:32;0;0;
61815;PMS5003;57055;-35.296;149.168;2023-01-19T12:24:04;0;0;
61815;PMS5003;57055;-35.296;149.168;2023-01-19T12:26:42;0;0;
61815;PMS5003;57055;-35.296;149.168;2023-01-19T12:29:17;1;0;
61815;PMS5003;57055;-35.296;149.168;2023-01-19T12:32:15;0;0;
61815;PMS5003;57055;-35.296;149.168;2023-01-19T12:34:45;1;1;
61815;PMS5003;57055;-35.296;149.168;2023-01-19T12:37:35;2;1;
61815;PMS5003;57055;-35.296;149.168;2023-01-19T12:40:23;4;1;
61815;PMS5003;57055;-35.296;149.168;2023-01-19T12:42:56;1;1;
61815;PMS5003;57055;-35.296;149.168;2023-01-19T12:45:29;0;0;
61815;PMS5003;57055;-35.296;149.168;2023-01-19T12:47:59;1;1;
61815;PMS5003;57055;-35.296;149.168;2023-01-19T12:50:30;0;0;
61815;PMS5003;57055;-35.296;149.168;2023-01-19T12:53:04;1;1;
61815;PMS5003;57055;-35.296;149.168;2023-01-19T12:55:43;0;0;
61815;PMS5003;57055;-35.296;149.168;2023-01-19T12:58:24;2;2;
61815;PMS5003;57055;-35.296;149.168;2023-01-19T13:01:11;2;0;
61815;PMS5003;57055;-35.296;149.168;2023-01-19T13:03:45;0;0;
61815;PMS5003;57055;-35.296;149.168;2023-01-19T13:07:41;1;0;
61815;PMS5003;57055;-35.296;149.168;2023-01-19T13:11:17;2;1;
61815;PMS5003;57055;-35.296;149.168;2023-01-19T13:14:32;1;1;
61815;PMS5003;57055;-35.296;149.168;2023-01-19T13:17:15;1;1;
61815;PMS5003;57055;-35.296;149.168;2023-01-19T13:20:00;0;0;
61815;PMS5003;57055;-35.296;149.168;2023-01-19T13:22:49;1;1;
61815;PMS5003;57055;-35.296;149.168;2023-01-19T13:25:43;0;0;
61815;PMS5003;57055;-35.296;149.168;2023-01-19T13:28:17;0;0;
61815;PMS5003;57055;-35.296;149.168;2023-01-19T13:30:52;1;1;
61815;PMS5003;57055;-35.296;149.168;2023-01-19T13:33:26;2;2;
61815;PMS5003;57055;-35.296;149.168;2023-01-19T13:36:00;0;0;
61815;PMS5003;57055;-35.296;149.168;2023-01-19T13:38:28;0;0;
61815;PMS5003;57055;-35.296;149.168;2023-01-19T13:40:57;1;1;
61815;PMS5003;57055;-35.296;149.168;2023-01-19T13:43:29;0;0;
61815;PMS5003;57055;-35.296;149.168;2023-01-19T13:46:04;0;0;
61815;PMS5003;57055;-35.296;149.168;2023-01-19T13:48:37;0;0;
61815;PMS5003;57055;-35.296;149.168;2023-01-19T13:51:10;0;0;
61815;PMS5003;57055;-35.296;149.168;2023-01-19T13:53:52;1;1;
61815;PMS5003;57055;-35.296;149.168;2023-01-19T13:56:22;1;1;
61815;PMS5003;57055;-35.296;149.168;2023-01-19T13:59:09;0;0;
61815;PMS5003;57055;-35.296;149.168;2023-01-19T14:01:39;0;0;
61815;PMS5003;57055;-35.296;149.168;2023-01-19T14:04:27;0;0;
61815;PMS5003;57055;-35.296;149.168;2023-01-19T14:06:58;0;0;
61815;PMS5003;57055;-35.296;149.168;2023-01-19T14:09:30;0;0;
61815;PMS5003;57055;-35.296;149.168;2023-01-19T14:12:15;2;0;
61815;PMS5003;57055;-35.296;149.168;2023-01-19T14:14:44;1;0;
61815;PMS5003;57055;-35.296;149.168;2023-01-19T14:17:19;2;1;
61815;PMS5003;57055;-35.296;149.168;2023-01-19T14:19:53;1;0;
61815;PMS5003;57055;-35.296;149.168;2023-01-19T14:22:40;1;1;
61815;PMS5003;57055;-35.296;149.168;2023-01-19T14:25:26;0;0;
61815;PMS5003;57055;-35.296;149.168;2023-01-19T14:28:32;2;2;
61815;PMS5003;57055;-35.296;149.168;2023-01-19T14:31:02;1;1;
61815;PMS5003;57055;-35.296;149.168;2023-01-19T14:33:46;3;3;
61815;PMS5003;57055;-35.296;149.168;2023-01-19T14:36:25;2;0;
61815;PMS5003;57055;-35.296;149.168;2023-01-19T14:38:59;0;0;
61815;PMS5003;57055;-35.296;149.168;2023-01-19T14:41:31;1;1;
61815;PMS5003;57055;-35.296;149.168;2023-01-19T14:44:07;1;0;
61815;PMS5003;57055;-35.296;149.168;2023-01-19T14:46:42;0;0;
61815;PMS5003;57055;-35.296;149.168;2023-01-19T14:49:15;0;0;
61815;PMS5003;57055;-35.296;149.168;2023-01-19T14:51:50;0;0;
61815;PMS5003;57055;-35.296;149.168;2023-01-19T14:54:22;0;0;
61815;PMS5003;57055;-35.296;149.168;2023-01-19T14:56:57;0;0;
61815;PMS5003;57055;-35.296;149.168;2023-01-19T14:59:26;0;0;
61815;PMS5003;57055;-35.296;149.168;2023-01-19T15:01:54;1;1;
61815;PMS5003;57055;-35.296;149.168;2023-01-19T15:04:24;0;0;
61815;PMS5003;57055;-35.296;149.168;2023-01-19T15:06:55;0;0;
61815;PMS5003;57055;-35.296;149.168;2023-01-19T15:09:24;1;1;
61815;PMS5003;57055;-35.296;149.168;2023-01-19T15:11:52;1;1;
61815;PMS5003;57055;-35.296;149.168;2023-01-19T15:14:21;1;1;
61815;PMS5003;57055;-35.296;149.168;2023-01-19T15:16:51;0;0;
61815;PMS5003;57055;-35.296;149.168;2023-01-19T15:19:19;0;0;
61815;PMS5003;57055;-35.296;149.168;2023-01-19T15:21:48;1;1;
61815;PMS5003;57055;-35.296;149.168;2023-01-19T15:24:17;0;0;
61815;PMS5003;57055;-35.296;149.168;2023-01-19T15:26:45;1;1;
61815;PMS5003;57055;-35.296;149.168;2023-01-19T15:29:17;1;1;
61815;PMS5003;57055;-35.296;149.168;2023-01-19T15:31:49;1;0;
61815;PMS5003;57055;-35.296;149.168;2023-01-19T15:34:19;1;0;
61815;PMS5003;57055;-35.296;149.168;2023-01-19T15:36:48;1;0;
61815;PMS5003;57055;-35.296;149.168;2023-01-19T15:39:16;1;0;
61815;PMS5003;57055;-35.296;149.168;2023-01-19T15:41:45;2;1;
61815;PMS5003;57055;-35.296;149.168;2023-01-19T15:44:14;0;0;
61815;PMS5003;57055;-35.296;149.168;2023-01-19T15:46:42;0;0;
61815;PMS5003;57055;-35.296;149.168;2023-01-19T15:49:11;0;0;
61815;PMS5003;57055;-35.296;149.168;2023-01-19T15:51:40;1;0;
61815;PMS5003;57055;-35.296;149.168;2023-01-19T15:54:09;0;0;
61815;PMS5003;57055;-35.296;149.168;2023-01-19T15:56:39;0;0;
61815;PMS5003;57055;-35.296;149.168;2023-01-19T15:59:08;1;1;
61815;PMS5003;57055;-35.296;149.168;2023-01-19T16:01:37;0;0;
61815;PMS5003;57055;-35.296;149.168;2023-01-19T16:04:07;1;1;
61815;PMS5003;57055;-35.296;149.168;2023-01-19T16:06:37;0;0;
61815;PMS5003;57055;-35.296;149.168;2023-01-19T16:09:06;0;0;
61815;PMS5003;57055;-35.296;149.168;2023-01-19T16:11:35;0;0;
61815;PMS5003;57055;-35.296;149.168;2023-01-19T16:14:04;1;1;
61815;PMS5003;57055;-35.296;149.168;2023-01-19T16:16:33;1;1;
61815;PMS5003;57055;-35.296;149.168;2023-01-19T16:19:02;1;1;
61815;PMS5003;57055;-35.296;149.168;2023-01-19T16:21:30;0;0;
61815;PMS5003;57055;-35.296;149.168;2023-01-19T16:24:00;0;0;
61815;PMS5003;57055;-35.296;149.168;2023-01-19T16:26:29;0;0;
61815;PMS5003;57055;-35.296;149.168;2023-01-19T16:28:59;3;2;
61815;PMS5003;57055;-35.296;149.168;2023-01-19T16:31:30;1;0;
61815;PMS5003;57055;-35.296;149.168;2023-01-19T16:33:59;1;1;
61815;PMS5003;57055;-35.296;149.168;2023-01-19T16:36:28;0;0;